Time;durP1;ratioP1;P1;durP2;ratioP2;P2;SDS_P1;SDS_P2;PMS_P1;PMS_P2;Temp;Humidity;BMP_temperature;BMP_pressure;BME280_temperature;BME280_humidity;BME280_pressure;Samples;Min_cycle;Max_cycle;Signal;HPM_P1;HPM_P2
2022/10/31 00:01:27;;;;;;;5.30;1.73;;;12.50;99.90;;;;;;5109942;28;20615;-83
2022/10/31 00:03:54;;;;;;;1.87;1.70;;;12.50;99.90;;;;;;5110691;28;20723;-82
2022/10/31 00:06:22;;;;;;;1.57;1.47;;;12.40;99.90;;;;;;5109613;28;20608;-83
2022/10/31 00:08:53;;;;;;;2.10;2.00;;;12.30;99.90;;;;;;5109866;28;21153;-82
2022/10/31 00:11:20;;;;;;;3.50;2.23;;;12.30;99.90;;;;;;5110035;28;20616;-82
2022/10/31 00:13:47;;;;;;;2.23;2.00;;;12.30;99.90;;;;;;5109621;28;20664;-83
2022/10/31 00:16:17;;;;;;;1.40;1.30;;;12.40;99.90;;;;;;5109610;28;20964;-82
2022/10/31 00:18:44;;;;;;;2.53;2.03;;;12.50;99.90;;;;;;5109796;28;20612;-82
2022/10/31 00:21:11;;;;;;;1.90;1.80;;;12.50;99.90;;;;;;5110002;28;20596;-82
2022/10/31 00:23:38;;;;;;;2.17;2.07;;;12.40;99.90;;;;;;5109634;28;20870;-82
2022/10/31 00:26:06;;;;;;;1.90;1.80;;;12.30;99.90;;;;;;5110926;28;20618;-82
2022/10/31 00:28:34;;;;;;;2.63;1.80;;;12.30;99.90;;;;;;5109347;28;20697;-83
2022/10/31 00:31:01;;;;;;;2.00;1.80;;;12.80;99.90;;;;;;5109986;28;20619;-82
2022/10/31 00:33:29;;;;;;;3.60;2.23;;;12.30;99.90;;;;;;5109252;28;21276;-82
2022/10/31 00:35:57;;;;;;;2.40;1.97;;;12.30;99.90;;;;;;5109740;28;20957;-83
2022/10/31 00:38:24;;;;;;;1.60;1.50;;;12.40;99.90;;;;;;5108548;28;21181;-83
2022/10/31 00:40:51;;;;;;;2.20;1.93;;;12.70;99.90;;;;;;5109476;28;20724;-83
2022/10/31 00:43:18;;;;;;;2.20;2.00;;;12.90;99.90;;;;;;5110065;28;21273;-84
2022/10/31 00:45:45;;;;;;;1.50;1.40;;;12.30;99.90;;;;;;5108291;28;20676;-84
2022/10/31 00:48:12;;;;;;;1.70;1.17;;;12.20;99.90;;;;;;5109354;28;20612;-83
2022/10/31 00:50:40;;;;;;;1.70;1.60;;;12.30;99.90;;;;;;5109755;28;21085;-84
2022/10/31 00:53:07;;;;;;;2.30;1.60;;;12.30;99.90;;;;;;5108952;28;20643;-83
2022/10/31 00:55:34;;;;;;;1.80;1.70;;;12.30;99.90;;;;;;5109534;28;20639;-83
2022/10/31 00:58:01;;;;;;;2.00;1.70;;;12.20;99.90;;;;;;5109266;28;20612;-83
2022/10/31 01:00:28;;;;;;;2.00;1.50;;;12.10;99.90;;;;;;5109012;28;20619;-83
2022/10/31 01:02:54;;;;;;;2.43;2.33;;;12.10;99.90;;;;;;5109994;28;20658;-83
2022/10/31 01:05:21;;;;;;;5.03;2.30;;;12.00;99.90;;;;;;5109351;28;21065;-83
2022/10/31 01:07:50;;;;;;;1.77;1.67;;;11.90;99.90;;;;;;5109146;28;20718;-83
2022/10/31 01:10:17;;;;;;;2.40;2.17;;;11.90;99.90;;;;;;5109982;28;20646;-83
2022/10/31 01:12:46;;;;;;;1.70;1.50;;;11.80;99.90;;;;;;5110387;28;20668;-83
2022/10/31 01:15:15;;;;;;;3.17;2.30;;;12.00;99.90;;;;;;5109832;28;20608;-83
2022/10/31 01:17:42;;;;;;;2.10;1.90;;;12.10;99.90;;;;;;5109784;28;20639;-83
2022/10/31 01:20:11;;;;;;;1.83;1.73;;;12.00;99.90;;;;;;5109481;28;20650;-83
2022/10/31 01:22:38;;;;;;;1.50;1.40;;;11.90;99.90;;;;;;5109020;28;20639;-83
2022/10/31 01:25:07;;;;;;;2.00;1.83;;;11.90;99.90;;;;;;5111074;28;21158;-83
2022/10/31 01:27:35;;;;;;;2.23;1.73;;;11.80;99.90;;;;;;5110041;28;20608;-83
2022/10/31 01:30:02;;;;;;;2.50;2.23;;;11.80;99.90;;;;;;5110267;28;20993;-83
2022/10/31 01:32:29;;;;;;;2.90;2.47;;;11.70;99.90;;;;;;5109959;28;20611;-82
2022/10/31 01:34:56;;;;;;;2.67;1.63;;;11.90;99.90;;;;;;5110718;28;20631;-83
2022/10/31 01:37:23;;;;;;;1.53;1.33;;;11.90;99.90;;;;;;5109347;28;20652;-84
2022/10/31 01:39:50;;;;;;;2.33;2.13;;;11.90;99.90;;;;;;5109951;28;20647;-84
2022/10/31 01:42:21;;;;;;;2.20;1.83;;;11.80;99.90;;;;;;5109826;28;20776;-83
2022/10/31 01:45:00;;;;;;;1.93;1.73;;;11.80;99.90;;;;;;5109462;28;20635;-83
2022/10/31 01:47:34;;;;;;;2.00;1.63;;;11.90;99.90;;;;;;5109014;28;20699;-83
2022/10/31 01:50:05;;;;;;;1.53;1.43;;;11.90;99.90;;;;;;5109854;28;20613;-83
2022/10/31 01:52:37;;;;;;;1.70;1.53;;;11.90;99.90;;;;;;5109677;28;20627;-83
2022/10/31 01:55:07;;;;;;;2.67;2.17;;;12.00;99.90;;;;;;5109903;28;20655;-83
2022/10/31 01:57:38;;;;;;;1.60;1.50;;;11.90;99.90;;;;;;5109122;28;20615;-84
2022/10/31 02:00:08;;;;;;;2.20;1.73;;;12.00;99.90;;;;;;5109748;28;20676;-83
2022/10/31 02:02:36;;;;;;;1.60;1.37;;;12.00;99.90;;;;;;5109231;28;20663;-83
2022/10/31 02:05:07;;;;;;;3.50;2.10;;;12.10;99.90;;;;;;5110725;28;20640;-83
2022/10/31 02:07:40;;;;;;;2.20;2.00;;;12.10;99.90;;;;;;5113006;28;20816;-83
2022/10/31 02:10:08;;;;;;;3.43;2.43;;;12.20;99.90;;;;;;5113885;28;20614;-83
2022/10/31 02:12:37;;;;;;;2.60;2.40;;;11.70;99.90;;;;;;5113013;28;21049;-83
2022/10/31 02:15:06;;;;;;;2.60;1.70;;;11.70;99.90;;;;;;5113763;28;20608;-83
2022/10/31 02:17:34;;;;;;;2.53;2.33;;;11.80;99.90;;;;;;5116588;27;21066;-83
2022/10/31 02:20:13;;;;;;;4.60;2.93;;;11.90;99.90;;;;;;5125220;27;20661;-83
2022/10/31 02:22:56;;;;;;;2.20;1.93;;;11.80;99.90;;;;;;5132109;27;20637;-83
2022/10/31 02:25:45;;;;;;;2.60;2.40;;;11.70;99.90;;;;;;5113287;28;20627;-83
2022/10/31 02:28:35;;;;;;;4.23;1.87;;;11.60;99.90;;;;;;5112607;28;20592;-83
2022/10/31 02:31:22;;;;;;;2.83;2.57;;;11.60;99.90;;;;;;5113871;28;20604;-83
2022/10/31 02:33:53;;;;;;;3.90;2.80;;;11.50;99.90;;;;;;5112731;28;21014;-83
2022/10/31 02:36:27;;;;;;;2.13;1.90;;;11.70;99.90;;;;;;5112871;28;20639;-83
2022/10/31 02:39:09;;;;;;;2.00;1.80;;;11.80;99.90;;;;;;5113288;28;21233;-83
2022/10/31 02:41:45;;;;;;;3.00;2.60;;;11.60;99.90;;;;;;5113411;28;20633;-83
2022/10/31 02:44:20;;;;;;;3.00;1.70;;;11.60;99.90;;;;;;5111701;28;21432;-83
2022/10/31 02:46:51;;;;;;;3.20;2.03;;;11.80;99.90;;;;;;5113189;28;20726;-83
2022/10/31 02:49:24;;;;;;;1.93;1.83;;;11.70;99.90;;;;;;5113606;28;20640;-83
2022/10/31 02:51:51;;;;;;;2.60;2.40;;;11.50;99.90;;;;;;5112791;28;20622;-83
2022/10/31 02:54:24;;;;;;;3.67;3.37;;;11.60;99.90;;;;;;5111654;28;20630;-84
2022/10/31 02:56:53;;;;;;;2.20;1.80;;;11.70;99.90;;;;;;5111968;28;20607;-83
2022/10/31 02:59:22;;;;;;;2.50;2.00;;;11.80;99.90;;;;;;5112204;28;20622;-83
2022/10/31 03:02:07;;;;;;;6.27;2.70;;;11.70;99.90;;;;;;5112713;28;20612;-83
2022/10/31 03:04:58;;;;;;;3.97;2.47;;;11.60;99.90;;;;;;5112349;28;20647;-83
2022/10/31 03:07:35;;;;;;;2.87;2.60;;;11.50;99.90;;;;;;5112198;28;21246;-83
2022/10/31 03:10:12;;;;;;;5.03;2.90;;;11.60;99.90;;;;;;5112683;28;21165;-84
2022/10/31 03:12:47;;;;;;;3.10;2.77;;;11.50;99.90;;;;;;5112588;28;20627;-83
2022/10/31 03:15:20;;;;;;;2.37;2.20;;;11.50;99.90;;;;;;5112296;28;20687;-83
2022/10/31 03:17:56;;;;;;;4.93;2.50;;;11.50;99.90;;;;;;5112176;28;20615;-83
2022/10/31 03:20:39;;;;;;;1.77;1.67;;;11.50;99.90;;;;;;5112382;28;20634;-83
2022/10/31 03:23:10;;;;;;;3.30;3.00;;;11.30;99.90;;;;;;5112642;28;20697;-83
2022/10/31 03:25:40;;;;;;;3.20;2.67;;;11.60;99.90;;;;;;5112596;28;20666;-83
2022/10/31 03:28:09;;;;;;;2.50;2.20;;;11.70;99.90;;;;;;5111920;28;20957;-84
2022/10/31 03:30:42;;;;;;;2.47;2.30;;;11.30;99.90;;;;;;5112339;28;20620;-83
2022/10/31 03:33:13;;;;;;;3.80;2.57;;;11.20;99.90;;;;;;5112761;28;21080;-83
2022/10/31 03:35:43;;;;;;;3.60;3.00;;;11.20;99.90;;;;;;5112226;28;20985;-83
2022/10/31 03:38:11;;;;;;;3.67;2.10;;;11.20;99.90;;;;;;5110824;28;20618;-83
2022/10/31 03:40:41;;;;;;;2.33;2.23;;;11.20;99.90;;;;;;5111739;28;20604;-83
2022/10/31 03:43:12;;;;;;;2.50;2.10;;;11.10;99.90;;;;;;5111677;28;20670;-83
2022/10/31 03:45:44;;;;;;;4.60;3.17;;;11.10;99.90;;;;;;5111069;28;20994;-83
2022/10/31 03:48:14;;;;;;;2.60;2.10;;;11.20;99.90;;;;;;5112265;28;20643;-83
2022/10/31 03:50:46;;;;;;;3.93;2.30;;;11.20;99.90;;;;;;5111279;28;21188;-83
2022/10/31 03:53:19;;;;;;;3.83;2.10;;;11.20;99.90;;;;;;5111464;28;20633;-83
2022/10/31 03:55:51;;;;;;;3.43;2.60;;;11.10;99.90;;;;;;5111621;28;20635;-83
2022/10/31 03:58:23;;;;;;;3.70;2.77;;;11.10;99.90;;;;;;5111127;28;20716;-84
2022/10/31 04:00:53;;;;;;;5.37;3.00;;;11.60;99.90;;;;;;5111180;28;20730;-84
2022/10/31 04:03:26;;;;;;;3.07;2.30;;;11.10;99.90;;;;;;5111271;28;20648;-83
2022/10/31 04:05:55;;;;;;;3.13;2.80;;;11.40;99.90;;;;;;5111221;28;20632;-83
2022/10/31 04:08:25;;;;;;;2.53;2.33;;;11.10;99.90;;;;;;5110960;28;20655;-83
2022/10/31 04:10:55;;;;;;;3.70;2.67;;;11.00;99.90;;;;;;5111049;28;21549;-83
2022/10/31 04:13:27;;;;;;;2.17;2.00;;;11.00;99.90;;;;;;5110495;28;20978;-83
2022/10/31 04:15:55;;;;;;;3.13;2.10;;;10.90;99.90;;;;;;5093619;28;20715;-83
2022/10/31 04:18:25;;;;;;;2.57;2.20;;;11.00;99.90;;;;;;5110736;28;20620;-83
2022/10/31 04:21:02;;;;;;;3.30;2.90;;;11.10;99.90;;;;;;5111237;28;21244;-83
2022/10/31 04:23:30;;;;;;;4.63;2.70;;;11.10;99.90;;;;;;5110255;28;20659;-83
2022/10/31 04:25:57;;;;;;;2.20;2.00;;;;;;;;;;5110558;28;20954;-83
2022/10/31 04:28:24;;;;;;;2.43;2.13;;;11.00;99.90;;;;;;5109936;28;20596;-83
2022/10/31 04:30:51;;;;;;;4.80;2.07;;;11.00;99.90;;;;;;5111790;28;20662;-83
2022/10/31 04:33:18;;;;;;;3.40;2.87;;;11.00;99.90;;;;;;5110878;28;20667;-83
2022/10/31 04:35:46;;;;;;;2.33;2.13;;;11.00;99.90;;;;;;5110524;28;20656;-83
2022/10/31 04:38:13;;;;;;;2.83;2.27;;;11.10;99.90;;;;;;5109797;28;20611;-83
2022/10/31 04:40:40;;;;;;;2.97;2.27;;;11.00;99.90;;;;;;5110947;28;20727;-83
2022/10/31 04:43:07;;;;;;;3.57;2.70;;;10.90;99.90;;;;;;5110344;28;20687;-83
2022/10/31 04:45:34;;;;;;;1.93;1.83;;;10.80;99.90;;;;;;5110192;28;20627;-84
2022/10/31 04:48:01;;;;;;;9.70;2.20;;;10.80;99.90;;;;;;5110054;28;20707;-82
2022/10/31 04:50:28;;;;;;;2.57;2.13;;;10.70;99.90;;;;;;5110598;28;20722;-82
2022/10/31 04:52:56;;;;;;;1.80;1.70;;;10.80;99.90;;;;;;5110092;28;20673;-83
2022/10/31 04:55:23;;;;;;;2.73;2.50;;;10.70;99.90;;;;;;5110135;28;20623;-82
2022/10/31 04:57:50;;;;;;;3.60;1.70;;;10.80;99.90;;;;;;5110209;28;20610;-82
2022/10/31 05:00:22;;;;;;;1.70;1.60;;;11.40;99.90;;;;;;5110772;28;20805;-82
2022/10/31 05:02:51;;;;;;;3.17;1.73;;;11.10;99.90;;;;;;5110568;28;20689;-82
2022/10/31 05:05:19;;;;;;;3.77;2.27;;;10.90;99.90;;;;;;5110121;28;20617;-82
2022/10/31 05:07:48;;;;;;;6.03;3.97;;;10.90;99.90;;;;;;5109951;28;20722;-82
2022/10/31 05:10:19;;;;;;;3.33;2.40;;;10.80;99.90;;;;;;5110492;28;20608;-82
2022/10/31 05:12:50;;;;;;;2.10;1.90;;;11.10;99.90;;;;;;5110485;28;20604;-82
2022/10/31 05:15:18;;;;;;;1.80;1.70;;;10.80;99.90;;;;;;5096524;28;20667;-82
2022/10/31 05:17:45;;;;;;;2.03;1.90;;;10.70;99.90;;;;;;5106130;28;20620;-82
2022/10/31 05:20:13;;;;;;;3.37;2.73;;;10.90;99.90;;;;;;5109784;28;20719;-82
2022/10/31 05:22:43;;;;;;;2.07;1.93;;;10.60;99.90;;;;;;5110374;28;20735;-84
2022/10/31 05:25:10;;;;;;;2.47;2.17;;;10.60;99.90;;;;;;5110204;28;20886;-83
2022/10/31 05:27:41;;;;;;;3.13;2.70;;;10.50;99.90;;;;;;5110151;28;20707;-83
2022/10/31 05:30:08;;;;;;;4.47;3.90;;;11.00;99.90;;;;;;5111607;28;20619;-83
2022/10/31 05:32:38;;;;;;;2.60;2.13;;;10.50;99.90;;;;;;5111650;28;20639;-84
2022/10/31 05:35:08;;;;;;;2.60;2.27;;;10.60;99.90;;;;;;5091667;28;20740;-82
2022/10/31 05:37:35;;;;;;;1.97;1.87;;;10.50;99.90;;;;;;5090710;28;20679;-83
2022/10/31 05:40:02;;;;;;;3.37;2.30;;;10.50;99.90;;;;;;5093179;28;20691;-83
2022/10/31 05:42:29;;;;;;;1.80;1.70;;;10.60;99.90;;;;;;5095387;28;20735;-83
2022/10/31 05:44:57;;;;;;;2.63;2.13;;;10.60;99.90;;;;;;5093323;28;20652;-83
2022/10/31 05:47:24;;;;;;;1.60;1.50;;;10.50;99.90;;;;;;5093769;28;20681;-83
2022/10/31 05:49:51;;;;;;;1.90;1.70;;;10.50;99.90;;;;;;5093439;28;21186;-83
2022/10/31 05:52:19;;;;;;;3.43;3.20;;;10.30;99.90;;;;;;5093794;28;20643;-83
2022/10/31 05:54:46;;;;;;;1.70;1.60;;;;;;;;;;5092511;28;20636;-83
2022/10/31 05:57:13;;;;;;;2.97;2.20;;;10.40;99.90;;;;;;5092160;28;20731;-83
2022/10/31 05:59:40;;;;;;;1.70;1.60;;;10.20;99.90;;;;;;5105606;28;20612;-83
2022/10/31 06:02:08;;;;;;;2.83;2.57;;;10.30;99.90;;;;;;5113847;28;20637;-83
2022/10/31 06:04:35;;;;;;;1.57;1.50;;;10.30;99.90;;;;;;5113870;28;20738;-83
2022/10/31 06:07:02;;;;;;;1.80;1.70;;;10.20;99.90;;;;;;5114177;28;20650;-83
2022/10/31 06:09:28;;;;;;;3.33;1.80;;;10.10;99.90;;;;;;5115048;28;20669;-83
2022/10/31 06:11:55;;;;;;;1.83;1.73;;;10.20;99.90;;;;;;5113757;28;20659;-83
2022/10/31 06:14:22;;;;;;;1.87;1.77;;;10.70;99.90;;;;;;5113685;28;20635;-83
2022/10/31 06:16:49;;;;;;;2.40;2.20;;;10.10;99.90;;;;;;5113851;28;20945;-83
2022/10/31 06:19:17;;;;;;;2.97;2.47;;;10.20;99.90;;;;;;5113959;28;20608;-83
2022/10/31 06:21:44;;;;;;;2.30;2.07;;;10.20;99.90;;;;;;5114250;28;20611;-83
2022/10/31 06:24:11;;;;;;;2.40;2.20;;;10.30;99.90;;;;;;5113817;28;20770;-83
2022/10/31 06:26:38;;;;;;;2.23;1.90;;;10.40;99.90;;;;;;5113675;28;20639;-85
2022/10/31 06:29:04;;;;;;;2.67;1.67;;;10.40;99.90;;;;;;5113868;28;20715;-83
2022/10/31 06:31:31;;;;;;;2.27;2.07;;;10.40;99.90;;;;;;5113114;28;21209;-83
2022/10/31 06:33:58;;;;;;;2.37;2.17;;;10.30;99.90;;;;;;5114285;28;20647;-83
2022/10/31 06:36:26;;;;;;;3.37;2.40;;;10.30;99.90;;;;;;5113407;28;21188;-83
2022/10/31 06:38:53;;;;;;;3.53;3.23;;;10.30;99.90;;;;;;5114575;28;20604;-83
2022/10/31 06:41:20;;;;;;;3.40;3.20;;;10.40;99.90;;;;;;5112985;28;21237;-83
2022/10/31 06:43:47;;;;;;;3.73;3.20;;;10.40;99.90;;;;;;5112765;28;20674;-83
2022/10/31 06:46:14;;;;;;;1.87;1.53;;;10.60;99.90;;;;;;5112777;28;20982;-83
2022/10/31 06:48:42;;;;;;;1.90;1.60;;;10.60;99.90;;;;;;5112791;28;20639;-83
2022/10/31 06:51:09;;;;;;;2.57;2.23;;;10.70;99.90;;;;;;5112588;28;20636;-83
2022/10/31 06:53:37;;;;;;;2.13;2.03;;;10.60;99.90;;;;;;5096617;27;20712;-83
2022/10/31 06:56:04;;;;;;;3.17;2.40;;;10.60;99.90;;;;;;5105139;28;20985;-83
2022/10/31 06:58:30;;;;;;;5.90;3.00;;;10.60;99.90;;;;;;5112608;28;20746;-83
2022/10/31 07:01:00;;;;;;;2.17;1.90;;;11.10;99.90;;;;;;5111862;28;20616;-83
2022/10/31 07:03:27;;;;;;;3.03;2.70;;;10.80;99.90;;;;;;5112040;28;20710;-83
2022/10/31 07:05:56;;;;;;;1.83;1.73;;;10.80;99.90;;;;;;5112462;28;20608;-83
2022/10/31 07:08:23;;;;;;;2.23;2.03;;;10.60;99.90;;;;;;5110941;28;21181;-83
2022/10/31 07:10:54;;;;;;;3.87;2.80;;;11.20;99.90;;;;;;5111836;28;20659;-83
2022/10/31 07:13:24;;;;;;;2.57;2.37;;;10.70;99.90;;;;;;5111855;27;20704;-83
2022/10/31 07:15:52;;;;;;;2.63;1.60;;;10.80;99.90;;;;;;5111126;28;20622;-83
2022/10/31 07:18:19;;;;;;;2.77;1.97;;;10.70;99.90;;;;;;5110007;28;20726;-82
2022/10/31 07:20:45;;;;;;;3.77;1.57;;;10.70;99.90;;;;;;5110705;28;20719;-82
2022/10/31 07:23:12;;;;;;;10.70;3.00;;;10.80;99.90;;;;;;5110666;28;21016;-82
2022/10/31 07:25:40;;;;;;;3.50;2.33;;;10.70;99.90;;;;;;5110499;28;20655;-83
2022/10/31 07:28:09;;;;;;;4.07;2.33;;;10.80;99.90;;;;;;5110602;28;21153;-82
2022/10/31 07:30:36;;;;;;;2.70;2.20;;;10.80;99.90;;;;;;5111558;28;20600;-82
2022/10/31 07:33:04;;;;;;;3.03;2.73;;;10.90;99.90;;;;;;5111173;28;20660;-82
2022/10/31 07:35:31;;;;;;;3.27;2.40;;;11.00;99.90;;;;;;5110852;28;20700;-83
2022/10/31 07:37:58;;;;;;;2.00;1.67;;;11.10;99.90;;;;;;5110448;28;20640;-82
2022/10/31 07:40:25;;;;;;;1.90;1.80;;;11.00;99.90;;;;;;5111060;28;20618;-82
2022/10/31 07:42:53;;;;;;;3.47;2.77;;;10.90;99.90;;;;;;5110562;28;20616;-82
2022/10/31 07:45:22;;;;;;;3.57;3.20;;;11.10;99.90;;;;;;5110029;28;20670;-82
2022/10/31 07:47:50;;;;;;;2.90;2.70;;;11.10;99.90;;;;;;5109474;28;20635;-82
2022/10/31 07:50:19;;;;;;;4.73;3.00;;;11.30;99.90;;;;;;5110207;28;20615;-82
2022/10/31 07:52:46;;;;;;;1.93;1.77;;;11.30;99.90;;;;;;5110218;28;20616;-82
2022/10/31 07:55:14;;;;;;;2.70;2.17;;;11.30;99.90;;;;;;5109554;28;21145;-82
2022/10/31 07:57:41;;;;;;;3.47;2.80;;;11.40;99.90;;;;;;5109505;28;20668;-81
2022/10/31 08:00:10;;;;;;;3.37;3.07;;;11.50;99.90;;;;;;5110745;28;20623;-82
2022/10/31 08:02:38;;;;;;;5.10;3.17;;;11.60;99.90;;;;;;5109151;28;20719;-82
2022/10/31 08:05:06;;;;;;;2.63;2.43;;;11.80;99.90;;;;;;5109791;28;20767;-81
2022/10/31 08:07:37;;;;;;;4.03;3.70;;;11.80;99.90;;;;;;5109388;28;20615;-81
2022/10/31 08:10:04;;;;;;;2.87;2.67;;;11.90;99.90;;;;;;5109501;28;20723;-81
2022/10/31 08:12:31;;;;;;;6.83;4.20;;;11.90;99.90;;;;;;5109386;28;21211;-81
2022/10/31 08:14:58;;;;;;;3.77;3.40;;;12.00;99.90;;;;;;5109629;28;20959;-82
2022/10/31 08:17:26;;;;;;;4.67;3.77;;;12.10;99.90;;;;;;5107317;28;20634;-81
2022/10/31 08:19:54;;;;;;;5.30;2.67;;;12.20;99.90;;;;;;5109443;28;20635;-81
2022/10/31 08:22:21;;;;;;;3.00;2.70;;;12.30;99.90;;;;;;5109463;28;20932;-81
2022/10/31 08:24:48;;;;;;;3.10;2.90;;;12.40;99.90;;;;;;5109438;28;21095;-81
2022/10/31 08:27:14;;;;;;;4.97;4.23;;;12.40;99.90;;;;;;5109267;28;20935;-81
2022/10/31 08:29:41;;;;;;;3.33;3.07;;;12.50;99.90;;;;;;5109521;28;20615;-82
2022/10/31 08:32:08;;;;;;;4.73;3.53;;;12.60;99.90;;;;;;5108251;28;20615;-81
2022/10/31 08:34:35;;;;;;;2.93;2.73;;;12.60;99.90;;;;;;5108429;28;21187;-81
2022/10/31 08:37:03;;;;;;;5.50;3.50;;;12.60;99.90;;;;;;5108870;28;20718;-81
2022/10/31 08:39:30;;;;;;;3.87;3.33;;;12.70;99.90;;;;;;5108964;28;21246;-81
2022/10/31 08:41:57;;;;;;;9.37;3.90;;;12.70;99.90;;;;;;5109006;28;21192;-84
2022/10/31 08:44:24;;;;;;;4.17;3.77;;;12.80;99.90;;;;;;5108833;28;20742;-81
2022/10/31 08:46:51;;;;;;;2.60;2.40;;;12.80;99.90;;;;;;5108192;28;20606;-81
2022/10/31 08:49:17;;;;;;;4.53;2.63;;;12.80;99.90;;;;;;5108543;28;20720;-82
2022/10/31 08:51:44;;;;;;;2.90;2.63;;;12.90;99.90;;;;;;5109117;28;20980;-82
2022/10/31 08:54:12;;;;;;;3.90;3.00;;;13.00;99.90;;;;;;5108138;28;20631;-83
2022/10/31 08:56:39;;;;;;;6.53;2.83;;;13.10;99.90;;;;;;5108188;28;20677;-83
2022/10/31 08:59:06;;;;;;;4.60;3.27;;;13.20;99.90;;;;;;5108444;28;20627;-82
2022/10/31 09:01:33;;;;;;;6.67;3.33;;;13.20;99.90;;;;;;5106837;28;21193;-81
2022/10/31 09:04:00;;;;;;;3.00;2.70;;;13.30;99.90;;;;;;5108781;28;20643;-81
2022/10/31 09:06:26;;;;;;;4.10;3.30;;;13.30;99.90;;;;;;5107931;28;21236;-82
2022/10/31 09:08:53;;;;;;;8.20;3.90;;;13.70;99.90;;;;;;5108405;28;20666;-81
2022/10/31 09:11:21;;;;;;;2.60;2.40;;;13.40;99.90;;;;;;5107335;28;20673;-81
2022/10/31 09:13:48;;;;;;;2.90;2.70;;;13.40;99.90;;;;;;5108316;27;20615;-82
2022/10/31 09:16:15;;;;;;;4.80;3.70;;;13.40;99.90;;;;;;5095415;28;20627;-82
2022/10/31 09:18:42;;;;;;;3.63;3.00;;;13.50;99.90;;;;;;5112558;28;20970;-82
2022/10/31 09:21:09;;;;;;;3.33;3.00;;;13.50;99.90;;;;;;5113434;28;20620;-82
2022/10/31 09:23:36;;;;;;;4.20;2.60;;;13.60;99.90;;;;;;5112141;28;20715;-82
2022/10/31 09:26:03;;;;;;;4.13;2.40;;;;;;;;;;5111748;28;20750;-82
2022/10/31 09:28:32;;;;;;;4.17;3.77;;;13.70;99.90;;;;;;5112690;28;21142;-81
2022/10/31 09:30:59;;;;;;;3.23;2.90;;;13.90;99.90;;;;;;5113561;28;20607;-82
2022/10/31 09:33:26;;;;;;;3.00;2.70;;;13.80;99.90;;;;;;5113863;28;20628;-82
2022/10/31 09:35:53;;;;;;;3.97;3.47;;;13.90;99.90;;;;;;5113183;28;20704;-82
2022/10/31 09:38:22;;;;;;;3.60;2.03;;;14.00;99.90;;;;;;5111019;28;20726;-82
2022/10/31 09:41:07;;;;;;;2.80;2.60;;;14.00;99.90;;;;;;5112420;28;20607;-82
2022/10/31 09:43:44;;;;;;;4.07;3.67;;;14.00;99.90;;;;;;5113021;28;20603;-82
2022/10/31 09:46:17;;;;;;;2.90;2.63;;;14.00;99.90;;;;;;5132589;27;20673;-82
2022/10/31 09:49:08;;;;;;;4.40;3.50;;;14.10;99.90;;;;;;5134411;27;20627;-82
2022/10/31 09:51:38;;;;;;;3.47;3.17;;;14.60;99.90;;;;;;5134256;27;20713;-82
2022/10/31 09:54:11;;;;;;;3.63;3.30;;;14.20;99.90;;;;;;5135604;27;20619;-82
2022/10/31 09:56:38;;;;;;;3.47;2.67;;;14.30;99.90;;;;;;5133558;27;20607;-81
2022/10/31 09:59:17;;;;;;;3.13;2.80;;;14.30;99.90;;;;;;5125469;27;20637;-82
2022/10/31 10:01:50;;;;;;;4.70;4.13;;;14.40;99.90;;;;;;5114388;28;20616;-82
2022/10/31 10:04:33;;;;;;;3.17;2.37;;;14.40;99.90;;;;;;5113157;28;21241;-82
2022/10/31 10:07:03;;;;;;;3.90;2.73;;;14.50;99.90;;;;;;5112320;28;20722;-82
2022/10/31 10:09:30;;;;;;;5.60;2.87;;;14.50;99.90;;;;;;5112963;28;20619;-83
2022/10/31 10:12:09;;;;;;;4.50;3.60;;;14.60;99.90;;;;;;5112937;28;20844;-82
2022/10/31 10:14:58;;;;;;;2.73;2.20;;;14.70;99.90;;;;;;5104430;28;21231;-82
2022/10/31 10:17:37;;;;;;;4.00;3.70;;;14.80;99.90;;;;;;5105760;28;21050;-82
2022/10/31 10:20:18;;;;;;;3.50;2.87;;;14.70;99.90;;;;;;5113759;28;20652;-83
2022/10/31 10:22:53;;;;;;;4.53;3.13;;;14.90;99.90;;;;;;5113748;28;20639;-82
2022/10/31 10:25:24;;;;;;;3.63;3.30;;;15.00;99.90;;;;;;5112395;28;20694;-82
2022/10/31 10:28:00;;;;;;;2.77;2.40;;;15.00;99.90;;;;;;5112355;28;21189;-83
2022/10/31 10:30:34;;;;;;;3.17;2.87;;;15.00;99.90;;;;;;5114202;28;20669;-83
2022/10/31 10:33:05;;;;;;;4.00;3.00;;;15.20;99.90;;;;;;5114383;28;20677;-83
2022/10/31 10:35:36;;;;;;;4.30;2.50;;;15.20;99.90;;;;;;5113975;28;20627;-83
2022/10/31 10:38:20;;;;;;;2.80;2.60;;;15.30;99.90;;;;;;5114270;28;21059;-83
2022/10/31 10:40:48;;;;;;;5.03;2.50;;;15.30;99.90;;;;;;5113614;28;20620;-83
2022/10/31 10:43:23;;;;;;;3.07;2.77;;;15.40;99.90;;;;;;5113890;28;20580;-82
2022/10/31 10:48:46;;;;;;;2.90;2.70;;;15.50;99.90;;;;;;5113125;28;20599;-83
2022/10/31 10:51:22;;;;;;;5.63;2.07;;;15.70;99.90;;;;;;5113410;28;20714;-82
2022/10/31 10:54:03;;;;;;;3.17;2.27;;;15.60;99.90;;;;;;5112293;28;20727;-82
2022/10/31 10:56:46;;;;;;;3.20;3.00;;;15.60;99.90;;;;;;5110786;28;20623;-83
2022/10/31 10:59:19;;;;;;;2.90;2.70;;;15.70;99.90;;;;;;5112442;28;20611;-82
2022/10/31 11:01:50;;;;;;;3.00;2.30;;;15.80;99.90;;;;;;5110489;28;20711;-82
2022/10/31 11:04:31;;;;;;;3.07;2.77;;;15.70;99.90;;;;;;5112365;28;20684;-82
2022/10/31 11:06:59;;;;;;;2.70;2.50;;;15.80;99.90;;;;;;5111565;28;20659;-81
2022/10/31 11:09:26;;;;;;;2.93;2.73;;;16.60;99.90;;;;;;5112121;28;20600;-82
2022/10/31 11:11:53;;;;;;;2.40;2.20;;;15.90;99.90;;;;;;5112035;28;20607;-82
2022/10/31 11:14:20;;;;;;;2.50;2.30;;;15.90;99.90;;;;;;5110667;28;20711;-82
2022/10/31 11:16:51;;;;;;;3.50;2.43;;;15.90;99.90;;;;;;5111505;28;20635;-82
2022/10/31 11:19:20;;;;;;;3.20;2.63;;;16.00;99.90;;;;;;5113211;28;20622;-82
2022/10/31 11:21:48;;;;;;;3.50;3.30;;;16.00;99.90;;;;;;5113220;28;20718;-82
2022/10/31 11:24:18;;;;;;;2.73;2.53;;;16.10;99.90;;;;;;5112927;28;20616;-82
2022/10/31 11:26:47;;;;;;;3.27;3.00;;;16.00;99.90;;;;;;5112443;28;20670;-82
2022/10/31 11:29:16;;;;;;;2.40;2.20;;;16.10;99.90;;;;;;5113224;28;20643;-81
2022/10/31 11:31:46;;;;;;;3.90;2.63;;;16.10;99.90;;;;;;5112936;28;20612;-82
2022/10/31 11:34:27;;;;;;;3.27;2.57;;;16.10;99.90;;;;;;5112545;28;20638;-82
2022/10/31 11:36:55;;;;;;;3.90;3.60;;;16.20;99.90;;;;;;5111092;28;20632;-81
2022/10/31 11:39:24;;;;;;;3.43;3.07;;;16.20;99.90;;;;;;5111678;28;20631;-81
2022/10/31 11:41:53;;;;;;;3.70;3.40;;;16.30;99.90;;;;;;5112360;28;21215;-84
2022/10/31 11:44:24;;;;;;;5.90;2.90;;;16.40;99.90;;;;;;5112185;28;20631;-82
2022/10/31 11:46:53;;;;;;;3.47;3.13;;;16.40;99.90;;;;;;5112488;28;20658;-81
2022/10/31 11:49:28;;;;;;;4.27;3.00;;;16.40;99.90;;;;;;5112292;28;20640;-81
2022/10/31 11:51:57;;;;;;;4.40;3.63;;;16.30;99.90;;;;;;5111946;28;20603;-82
2022/10/31 11:54:27;;;;;;;2.73;2.40;;;16.30;99.90;;;;;;5112372;28;20667;-82
2022/10/31 11:56:54;;;;;;;4.13;2.80;;;16.50;99.90;;;;;;5110382;27;20708;-83
2022/10/31 11:59:28;;;;;;;3.20;2.90;;;16.50;99.90;;;;;;5111120;28;20608;-82
2022/10/31 12:01:56;;;;;;;2.80;2.13;;;16.50;99.80;;;;;;5110628;28;20627;-82
2022/10/31 12:04:39;;;;;;;4.13;2.93;;;16.50;99.90;;;;;;5110154;28;20696;-82
2022/10/31 12:07:06;;;;;;;2.87;2.67;;;16.50;99.90;;;;;;5110089;28;20667;-83
2022/10/31 12:09:36;;;;;;;6.13;2.70;;;16.70;99.90;;;;;;5110176;28;20640;-82
2022/10/31 12:12:43;;;;;;;5.73;2.60;;;16.60;99.90;;;;;;5110726;28;20608;-83
2022/10/31 12:15:31;;;;;;;4.47;2.87;;;16.60;99.90;;;;;;5109272;28;21181;-82
2022/10/31 12:18:12;;;;;;;2.67;2.20;;;16.60;99.90;;;;;;5109394;28;20615;-82
2022/10/31 12:20:51;;;;;;;3.33;2.57;;;16.70;99.90;;;;;;5110712;28;20681;-83
2022/10/31 12:23:24;;;;;;;2.90;2.60;;;16.80;99.90;;;;;;5110031;28;20611;-83
2022/10/31 12:25:56;;;;;;;2.77;2.57;;;16.70;99.90;;;;;;5110641;28;20749;-84
2022/10/31 12:28:44;;;;;;;1.87;1.77;;;16.80;99.50;;;;;;5109634;28;20689;-83
2022/10/31 12:31:31;;;;;;;2.10;1.97;;;16.80;99.80;;;;;;5109783;28;20647;-83
2022/10/31 12:34:10;;;;;;;2.30;2.07;;;16.90;99.80;;;;;;5109695;28;20718;-83
2022/10/31 12:36:47;;;;;;;3.20;2.27;;;16.90;99.80;;;;;;5109649;28;20710;-83
2022/10/31 12:39:25;;;;;;;2.10;1.90;;;16.90;99.00;;;;;;5109389;28;20721;-83
2022/10/31 12:41:58;;;;;;;8.13;3.53;;;16.90;99.00;;;;;;5108805;28;20612;-83
2022/10/31 12:45:04;;;;;;;1.60;1.50;;;16.90;99.50;;;;;;5109205;28;20608;-83
2022/10/31 12:47:55;;;;;;;2.07;1.70;;;16.90;99.90;;;;;;5107966;28;20659;-83
2022/10/31 12:50:32;;;;;;;2.17;1.93;;;17.00;99.80;;;;;;5108610;28;20607;-83
2022/10/31 12:53:19;;;;;;;18.67;2.50;;;16.90;99.30;;;;;;5108966;28;21202;-83
2022/10/31 12:55:59;;;;;;;1.80;1.70;;;16.80;99.60;;;;;;5108534;28;20827;-83
2022/10/31 12:58:31;;;;;;;2.23;2.03;;;16.90;99.90;;;;;;5108447;28;20742;-85
2022/10/31 13:01:07;;;;;;;2.27;2.07;;;16.90;99.90;;;;;;5109020;28;20640;-83
2022/10/31 13:03:42;;;;;;;2.63;2.43;;;16.80;99.90;;;;;;5108813;28;20661;-83
2022/10/31 13:06:14;;;;;;;4.13;2.50;;;16.80;99.90;;;;;;5108869;28;21271;-83
2022/10/31 13:08:46;;;;;;;1.83;1.73;;;16.80;99.90;;;;;;5108306;28;20723;-83